Time;durP1;ratioP1;P1;durP2;ratioP2;P2;SDS_P1;SDS_P2;PMS_P1;PMS_P2;Temp;Humidity;BMP_temperature;BMP_pressure;BME280_temperature;BME280_humidity;BME280_pressure;Samples;Min_cycle;Max_cycle;Signal;HPM_P1;HPM_P2
2021/06/30 00:00:49;;;;;;;35.35;23.27;;;18.40;93.20;;;;;;4953335;29;20282;-85
2021/06/30 00:03:14;;;;;;;37.30;22.67;;;18.40;93.10;;;;;;4954376;29;20679;-85
2021/06/30 00:05:40;;;;;;;41.15;23.17;;;18.40;93.00;;;;;;4954447;29;20224;-85
2021/06/30 00:08:06;;;;;;;48.88;25.33;;;18.40;93.00;;;;;;4953135;29;20214;-85
2021/06/30 00:10:32;;;;;;;42.45;23.80;;;18.40;92.90;;;;;;4953150;29;20176;-85
2021/06/30 00:12:58;;;;;;;46.97;22.30;;;18.50;92.80;;;;;;4953095;29;20196;-85
2021/06/30 00:15:26;;;;;;;47.13;23.75;;;18.40;92.80;;;;;;4954296;28;20172;-85
2021/06/30 00:17:52;;;;;;;36.58;22.02;;;18.50;92.70;;;;;;4953064;29;20298;-85
2021/06/30 00:20:18;;;;;;;41.08;23.70;;;18.50;92.60;;;;;;4952967;29;20214;-85
2021/06/30 00:22:44;;;;;;;41.00;23.88;;;18.50;92.50;;;;;;4952787;29;20219;-85
2021/06/30 00:25:11;;;;;;;42.35;22.98;;;18.60;92.40;;;;;;4954569;29;20172;-85
2021/06/30 00:27:36;;;;;;;47.35;23.67;;;18.60;92.30;;;;;;4952815;28;20199;-85
2021/06/30 00:30:04;;;;;;;44.85;25.15;;;18.60;92.20;;;;;;4952913;29;20186;-85
2021/06/30 00:32:30;;;;;;;33.13;23.25;;;18.60;92.10;;;;;;4952810;28;20198;-85
2021/06/30 00:34:55;;;;;;;40.25;23.88;;;18.60;92.10;;;;;;4952761;29;20179;-85
2021/06/30 00:37:21;;;;;;;37.90;24.67;;;18.70;92.10;;;;;;4952798;29;20186;-85
2021/06/30 00:39:47;;;;;;;41.63;23.65;;;18.70;92.00;;;;;;4952711;29;20190;-85
2021/06/30 00:42:13;;;;;;;44.67;25.70;;;18.70;91.90;;;;;;4952636;29;20687;-85
2021/06/30 00:44:43;;;;;;;52.05;25.35;;;18.70;91.80;;;;;;4952591;29;20186;-85
2021/06/30 00:47:08;;;;;;;47.42;24.70;;;18.70;91.70;;;;;;4953831;28;20199;-85
2021/06/30 00:49:34;;;;;;;53.00;25.48;;;18.70;91.70;;;;;;4953792;29;20171;-85
2021/06/30 00:52:00;;;;;;;44.72;25.60;;;18.70;91.60;;;;;;4952460;28;20316;-85
2021/06/30 00:54:25;;;;;;;40.55;26.73;;;18.70;91.50;;;;;;4952502;29;20183;-85
2021/06/30 00:56:52;;;;;;;46.72;27.88;;;18.70;91.50;;;;;;4953679;29;20179;-85
2021/06/30 00:59:18;;;;;;;37.67;26.17;;;18.70;91.40;;;;;;4952436;29;20270;-85
2021/06/30 01:01:44;;;;;;;41.67;25.90;;;18.80;91.40;;;;;;4952829;28;20269;-85
2021/06/30 01:04:10;;;;;;;30.25;23.70;;;18.80;91.30;;;;;;4953572;29;20230;-85
2021/06/30 01:06:36;;;;;;;45.95;27.45;;;18.80;91.20;;;;;;4952257;29;20175;-85
2021/06/30 01:09:04;;;;;;;37.58;25.20;;;18.80;91.20;;;;;;4953416;29;20199;-85
2021/06/30 01:11:30;;;;;;;37.53;24.45;;;18.80;91.30;;;;;;4953427;28;20671;-85
2021/06/30 01:13:57;;;;;;;39.45;26.05;;;18.80;91.10;;;;;;4953403;28;20183;-85
2021/06/30 01:16:22;;;;;;;39.85;25.75;;;18.80;91.10;;;;;;4952242;29;20615;-85
2021/06/30 01:18:48;;;;;;;40.95;26.35;;;18.80;90.90;;;;;;4953613;29;20245;-85
2021/06/30 01:21:15;;;;;;;37.03;25.60;;;18.80;90.80;;;;;;4953393;29;20214;-85
2021/06/30 01:23:42;;;;;;;35.67;26.13;;;18.90;90.70;;;;;;4953464;29;20282;-85
2021/06/30 01:26:09;;;;;;;46.10;28.30;;;18.90;90.60;;;;;;4953365;28;20222;-85
2021/06/30 01:28:35;;;;;;;41.55;28.83;;;18.90;90.60;;;;;;4953217;28;20217;-85
2021/06/30 01:31:03;;;;;;;42.88;27.17;;;18.90;90.80;;;;;;4951994;29;20175;-85
2021/06/30 01:33:29;;;;;;;32.90;23.50;;;18.90;90.80;;;;;;4951977;29;20210;-85
2021/06/30 01:35:55;;;;;;;43.65;27.50;;;18.90;90.90;;;;;;4953386;28;20172;-85
2021/06/30 01:38:23;;;;;;;41.72;26.27;;;18.90;90.80;;;;;;4953109;28;20179;-85
2021/06/30 01:40:50;;;;;;;37.95;26.45;;;18.90;90.80;;;;;;4952230;29;20179;-85
2021/06/30 01:43:15;;;;;;;38.45;26.95;;;18.80;90.70;;;;;;4951748;29;20199;-85
2021/06/30 01:45:41;;;;;;;35.00;25.08;;;18.90;90.80;;;;;;4951667;29;20185;-85
2021/06/30 01:48:07;;;;;;;40.38;28.05;;;18.90;90.60;;;;;;4951663;29;20210;-85
2021/06/30 01:50:32;;;;;;;36.10;27.02;;;18.90;90.70;;;;;;4952949;28;20175;-85
2021/06/30 01:52:58;;;;;;;37.03;27.45;;;18.90;90.90;;;;;;4953098;29;20191;-85
2021/06/30 01:55:24;;;;;;;39.60;27.60;;;18.90;91.10;;;;;;4951635;29;20537;-85
2021/06/30 01:57:50;;;;;;;40.45;26.83;;;18.90;91.20;;;;;;4952680;29;20643;-85
2021/06/30 02:00:18;;;;;;;51.13;28.25;;;18.90;91.20;;;;;;4952764;28;20176;-85
2021/06/30 02:02:46;;;;;;;49.25;29.73;;;18.80;91.10;;;;;;4952945;28;20682;-85
2021/06/30 02:05:19;;;;;;;50.78;30.63;;;18.80;91.30;;;;;;4952722;28;20654;-85
2021/06/30 02:07:52;;;;;;;53.60;29.85;;;18.80;91.30;;;;;;4951363;29;20203;-85
2021/06/30 02:10:19;;;;;;;42.35;30.20;;;18.80;91.40;;;;;;4952804;28;20156;-85
2021/06/30 02:12:46;;;;;;;49.25;30.70;;;18.80;91.40;;;;;;4952457;28;20282;-85
2021/06/30 02:15:25;;;;;;;65.70;32.75;;;18.70;91.60;;;;;;4951392;29;20176;-85
2021/06/30 02:17:51;;;;;;;64.75;33.08;;;18.70;91.90;;;;;;4951329;29;20171;-85
2021/06/30 02:20:18;;;;;;;57.90;32.28;;;18.70;92.00;;;;;;4951306;29;20215;-85
2021/06/30 02:22:45;;;;;;;74.50;33.15;;;18.70;92.00;;;;;;4951053;29;20215;-85
2021/06/30 02:25:13;;;;;;;90.97;35.72;;;18.70;92.00;;;;;;4952440;28;20174;-85
2021/06/30 02:27:40;;;;;;;70.18;33.38;;;18.60;92.00;;;;;;4951115;29;20556;-85
2021/06/30 02:30:12;;;;;;;85.90;35.42;;;18.70;92.00;;;;;;4952444;28;20167;-85
2021/06/30 02:32:38;;;;;;;74.43;33.47;;;18.60;92.00;;;;;;4952311;28;20195;-85
2021/06/30 02:35:06;;;;;;;71.57;31.58;;;18.70;92.00;;;;;;4951325;29;20549;-85
2021/06/30 02:37:32;;;;;;;84.13;30.80;;;18.70;92.00;;;;;;4951028;29;20190;-85
2021/06/30 02:39:59;;;;;;;71.40;31.27;;;18.70;92.00;;;;;;4951069;28;20180;-85
2021/06/30 02:42:25;;;;;;;71.22;32.33;;;18.70;91.90;;;;;;4952149;28;20206;-85
2021/06/30 02:44:50;;;;;;;70.53;30.73;;;18.70;91.80;;;;;;4952159;29;20518;-85
2021/06/30 02:47:16;;;;;;;67.70;31.25;;;18.70;91.80;;;;;;4950896;29;20207;-85
2021/06/30 02:49:41;;;;;;;66.03;31.23;;;18.80;91.70;;;;;;4950932;29;20175;-85
2021/06/30 02:52:08;;;;;;;55.30;30.40;;;18.80;91.60;;;;;;4950818;29;20195;-85
2021/06/30 02:54:34;;;;;;;56.70;29.88;;;18.80;91.50;;;;;;4952058;29;20176;-85
2021/06/30 02:56:59;;;;;;;62.05;29.05;;;18.80;91.40;;;;;;4952027;29;20201;-85
2021/06/30 02:59:25;;;;;;;50.40;26.75;;;18.80;91.30;;;;;;4952527;29;20176;-85
2021/06/30 03:01:51;;;;;;;53.67;30.60;;;18.80;91.10;;;;;;4950797;29;20199;-85
2021/06/30 03:04:16;;;;;;;59.92;29.67;;;18.70;91.00;;;;;;4950743;28;20187;-85
2021/06/30 03:06:42;;;;;;;55.15;28.45;;;18.70;90.90;;;;;;4950738;29;20295;-85
2021/06/30 03:09:08;;;;;;;42.78;24.50;;;18.70;90.80;;;;;;4950651;29;20218;-85
2021/06/30 03:11:35;;;;;;;49.10;25.55;;;18.60;90.80;;;;;;4951818;29;20230;-85
2021/06/30 03:14:00;;;;;;;55.55;29.25;;;18.60;90.70;;;;;;4950712;29;20674;-85
2021/06/30 03:16:26;;;;;;;50.15;27.75;;;18.60;90.60;;;;;;4951892;29;20187;-85
2021/06/30 03:18:51;;;;;;;51.97;26.65;;;18.50;90.40;;;;;;4950542;28;20271;-85
2021/06/30 03:21:17;;;;;;;47.28;25.90;;;18.50;90.30;;;;;;4951732;29;20553;-85
2021/06/30 03:23:43;;;;;;;48.17;26.13;;;18.50;90.20;;;;;;4951671;29;20202;-85
2021/06/30 03:26:08;;;;;;;100.57;27.00;;;18.50;90.20;;;;;;4954084;28;20175;-85
2021/06/30 03:28:34;;;;;;;97.35;29.73;;;18.40;90.50;;;;;;4954965;29;20210;-85
2021/06/30 03:31:00;;;;;;;60.67;30.83;;;18.30;91.00;;;;;;4953822;28;20214;-84
2021/06/30 03:33:25;;;;;;;128.82;30.85;;;18.20;91.60;;;;;;4954897;28;20192;-85
2021/06/30 03:35:51;;;;;;;94.00;31.42;;;18.30;91.70;;;;;;4953721;29;20176;-85
2021/06/30 03:38:16;;;;;;;99.47;31.55;;;18.30;91.80;;;;;;4955444;29;20180;-85
2021/06/30 03:40:42;;;;;;;46.80;29.15;;;18.30;91.90;;;;;;4953632;29;20184;-85
2021/06/30 03:43:08;;;;;;;36.42;28.77;;;18.30;91.90;;;;;;4954703;29;20195;-85
2021/06/30 03:45:33;;;;;;;51.35;34.85;;;18.30;91.90;;;;;;4954784;29;20176;-85
2021/06/30 03:47:59;;;;;;;44.67;35.17;;;18.30;92.20;;;;;;4954658;29;20207;-85
2021/06/30 03:50:24;;;;;;;52.95;38.20;;;18.20;92.50;;;;;;4953463;28;20229;-85
2021/06/30 03:52:50;;;;;;;48.33;38.42;;;18.30;92.70;;;;;;4953378;28;20192;-85
2021/06/30 03:55:16;;;;;;;57.35;39.63;;;18.30;92.70;;;;;;4953399;29;20184;-84
2021/06/30 03:57:41;;;;;;;45.65;36.88;;;18.30;92.60;;;;;;4953453;29;20218;-85
2021/06/30 04:00:08;;;;;;;43.40;36.20;;;18.40;92.50;;;;;;4953336;29;20178;-85
2021/06/30 04:02:34;;;;;;;45.70;35.45;;;18.40;92.40;;;;;;4954456;28;20228;-85
2021/06/30 04:05:00;;;;;;;51.67;37.38;;;18.40;92.40;;;;;;4953329;29;20617;-85
2021/06/30 04:07:25;;;;;;;45.55;36.63;;;18.50;92.40;;;;;;4953197;28;20207;-85
2021/06/30 04:09:51;;;;;;;44.97;36.53;;;18.50;92.30;;;;;;4954389;29;20205;-85
2021/06/30 04:12:16;;;;;;;47.28;37.20;;;18.60;92.10;;;;;;4954469;29;20188;-85
2021/06/30 04:14:42;;;;;;;48.00;38.22;;;18.70;92.00;;;;;;4953103;29;20187;-85
2021/06/30 04:17:08;;;;;;;46.95;38.20;;;18.60;91.90;;;;;;4954312;29;20233;-84
2021/06/30 04:19:33;;;;;;;46.13;38.47;;;18.60;91.80;;;;;;4953006;29;20669;-85
2021/06/30 04:21:59;;;;;;;47.78;38.15;;;18.70;91.80;;;;;;4952937;29;20210;-85
2021/06/30 04:24:25;;;;;;;45.67;38.10;;;18.70;91.60;;;;;;4953067;29;20190;-85
2021/06/30 04:26:50;;;;;;;45.97;37.65;;;18.70;91.50;;;;;;4952845;29;20183;-85
2021/06/30 04:29:16;;;;;;;51.58;39.78;;;18.60;91.40;;;;;;4952955;29;20176;-85
2021/06/30 04:31:42;;;;;;;50.97;40.10;;;18.60;91.40;;;;;;4954039;29;20196;-85
2021/06/30 04:34:07;;;;;;;47.78;39.53;;;18.60;91.40;;;;;;4952780;29;20211;-85
2021/06/30 04:36:33;;;;;;;50.58;40.10;;;18.70;91.30;;;;;;4952905;28;20176;-85
2021/06/30 04:38:59;;;;;;;55.63;41.35;;;18.70;91.20;;;;;;4954007;28;20176;-85
2021/06/30 04:41:25;;;;;;;59.65;42.58;;;18.70;91.00;;;;;;4953908;28;20202;-85
2021/06/30 04:43:50;;;;;;;63.40;46.17;;;18.50;91.10;;;;;;4952728;29;20294;-85
2021/06/30 04:46:16;;;;;;;69.00;43.78;;;18.30;91.80;;;;;;4952632;29;20176;-85
2021/06/30 04:48:42;;;;;;;61.22;43.50;;;18.40;91.90;;;;;;4953787;29;20254;-85
2021/06/30 04:51:08;;;;;;;64.22;44.03;;;18.40;91.90;;;;;;4952512;29;20176;-85
2021/06/30 04:53:34;;;;;;;53.95;41.95;;;18.40;91.80;;;;;;4953818;28;20175;-85
2021/06/30 04:55:59;;;;;;;56.45;43.55;;;18.50;91.80;;;;;;4953739;28;20168;-85
2021/06/30 04:58:26;;;;;;;58.10;43.80;;;18.40;91.60;;;;;;4952460;28;20188;-85
2021/06/30 05:00:54;;;;;;;64.50;43.10;;;18.40;91.50;;;;;;4952394;28;20232;-85
2021/06/30 05:03:28;;;;;;;56.35;42.03;;;18.40;91.50;;;;;;4953527;28;20594;-85
2021/06/30 05:05:54;;;;;;;57.47;42.10;;;18.50;91.50;;;;;;4952428;29;20552;-85
2021/06/30 05:08:24;;;;;;;59.75;43.05;;;18.50;91.40;;;;;;4952339;29;20204;-85
2021/06/30 05:10:52;;;;;;;63.53;43.03;;;18.50;91.30;;;;;;4952318;29;20233;-85
2021/06/30 05:13:18;;;;;;;57.80;41.80;;;18.40;91.30;;;;;;4953489;29;20702;-85
2021/06/30 05:15:44;;;;;;;59.85;42.25;;;18.40;91.50;;;;;;4953529;29;20175;-85
2021/06/30 05:18:10;;;;;;;55.63;40.88;;;18.50;91.30;;;;;;4953452;28;20651;-85
2021/06/30 05:20:36;;;;;;;58.30;40.30;;;18.40;91.30;;;;;;4953372;29;20206;-84
2021/06/30 05:23:02;;;;;;;57.78;39.35;;;18.40;91.30;;;;;;4953166;29;20223;-85
2021/06/30 05:25:27;;;;;;;59.05;41.10;;;18.50;91.40;;;;;;4953669;29;20221;-85
2021/06/30 05:27:53;;;;;;;57.33;38.33;;;18.60;91.30;;;;;;4953206;29;20726;-85
2021/06/30 05:30:19;;;;;;;56.17;38.92;;;18.60;91.20;;;;;;4951984;29;20549;-85
2021/06/30 05:32:45;;;;;;;52.95;38.42;;;18.60;91.10;;;;;;4951838;29;20210;-85
2021/06/30 05:35:10;;;;;;;55.15;38.10;;;18.50;91.10;;;;;;4953201;29;20176;-85
2021/06/30 05:37:38;;;;;;;57.30;38.65;;;18.50;91.40;;;;;;4951896;29;20190;-85
2021/06/30 05:40:04;;;;;;;61.05;39.65;;;18.50;91.30;;;;;;4951845;29;20225;-85
2021/06/30 05:42:30;;;;;;;55.55;37.78;;;18.30;91.20;;;;;;4952954;28;20210;-85
2021/06/30 05:44:55;;;;;;;52.80;38.47;;;18.40;91.30;;;;;;4953168;29;20180;-84
2021/06/30 05:47:21;;;;;;;56.65;39.00;;;18.30;91.30;;;;;;4952757;28;20226;-85
2021/06/30 05:49:47;;;;;;;52.90;37.50;;;18.40;91.40;;;;;;4951662;29;20186;-85
2021/06/30 05:52:12;;;;;;;55.38;37.88;;;18.50;91.50;;;;;;4952865;29;20567;-85
2021/06/30 05:54:38;;;;;;;55.40;37.63;;;18.50;91.20;;;;;;4951700;29;20225;-85
2021/06/30 05:57:04;;;;;;;49.13;36.08;;;18.60;91.20;;;;;;4951638;29;20182;-85
2021/06/30 05:59:29;;;;;;;56.17;36.90;;;18.70;90.80;;;;;;4951561;29;20257;-85
2021/06/30 06:01:55;;;;;;;50.60;38.05;;;18.60;90.40;;;;;;4952963;29;20655;-85
2021/06/30 06:04:20;;;;;;;48.03;35.70;;;18.70;90.40;;;;;;4952753;29;20179;-85
2021/06/30 06:06:46;;;;;;;48.58;35.35;;;18.70;90.60;;;;;;4951462;29;20647;-85
2021/06/30 06:09:12;;;;;;;44.05;34.63;;;18.70;90.60;;;;;;4951350;29;20215;-85
2021/06/30 06:11:37;;;;;;;42.83;34.00;;;18.80;90.50;;;;;;4951356;29;20550;-85
2021/06/30 06:14:03;;;;;;;43.03;33.63;;;18.80;90.20;;;;;;4951409;29;20636;-85
2021/06/30 06:16:29;;;;;;;49.75;36.50;;;18.70;89.80;;;;;;4951373;29;20211;-85
2021/06/30 06:18:54;;;;;;;46.92;36.67;;;18.80;90.00;;;;;;4951322;29;20180;-85
2021/06/30 06:21:20;;;;;;;52.97;38.08;;;18.90;90.20;;;;;;4951185;28;20213;-85
2021/06/30 06:23:46;;;;;;;51.22;38.00;;;18.90;89.90;;;;;;4952433;29;20277;-85
2021/06/30 06:26:12;;;;;;;55.63;38.78;;;18.70;89.70;;;;;;4951167;29;20180;-85
2021/06/30 06:28:38;;;;;;;51.60;38.17;;;18.70;90.10;;;;;;4952284;29;20199;-85
2021/06/30 06:31:06;;;;;;;57.55;41.17;;;18.70;90.40;;;;;;4952318;29;20175;-84
2021/06/30 06:33:31;;;;;;;53.53;39.60;;;18.60;90.50;;;;;;4952392;28;20175;-84
2021/06/30 06:35:58;;;;;;;59.88;40.03;;;18.60;90.60;;;;;;4952363;29;20255;-84
2021/06/30 06:38:24;;;;;;;52.28;40.65;;;18.60;90.90;;;;;;4951053;29;20651;-84
2021/06/30 06:40:51;;;;;;;53.35;40.35;;;18.70;90.90;;;;;;4951075;29;20271;-84
2021/06/30 06:43:17;;;;;;;59.25;40.90;;;18.70;90.70;;;;;;4950969;29;20252;-84
2021/06/30 06:45:43;;;;;;;54.05;37.90;;;18.60;90.60;;;;;;4952293;28;20649;-84
2021/06/30 06:48:08;;;;;;;57.80;39.53;;;18.50;90.70;;;;;;4950903;29;20575;-84
2021/06/30 06:50:34;;;;;;;45.75;36.05;;;18.60;90.70;;;;;;4950931;29;20293;-84
2021/06/30 06:53:00;;;;;;;50.13;38.10;;;18.70;90.50;;;;;;4950814;29;20191;-84
2021/06/30 06:55:26;;;;;;;49.78;38.65;;;18.70;90.30;;;;;;4950857;28;20179;-84
2021/06/30 06:57:52;;;;;;;49.40;37.63;;;18.60;90.80;;;;;;4950843;29;20183;-84
2021/06/30 07:00:19;;;;;;;49.28;36.85;;;18.60;90.90;;;;;;4952117;28;20185;-84
2021/06/30 07:02:46;;;;;;;55.33;39.13;;;18.50;90.80;;;;;;4954276;29;20210;-84
2021/06/30 07:05:20;;;;;;;52.38;38.83;;;18.50;91.00;;;;;;4938613;28;20647;-84
2021/06/30 07:07:46;;;;;;;51.33;38.13;;;18.40;91.00;;;;;;4954417;29;20256;-84
2021/06/30 07:10:13;;;;;;;45.75;35.97;;;18.50;90.90;;;;;;4954104;29;20176;-84
2021/06/30 07:12:39;;;;;;;50.78;36.40;;;18.40;91.10;;;;;;4955247;28;20655;-84
2021/06/30 07:15:08;;;;;;;48.45;35.85;;;18.60;91.20;;;;;;4955276;28;20179;-84
2021/06/30 07:17:35;;;;;;;49.72;36.13;;;18.60;91.00;;;;;;4955198;28;20214;-84
2021/06/30 07:20:02;;;;;;;45.85;33.30;;;18.70;90.90;;;;;;4953970;29;20176;-84
2021/06/30 07:22:27;;;;;;;49.05;35.50;;;18.70;90.80;;;;;;4954065;29;20226;-84
2021/06/30 07:24:53;;;;;;;45.97;35.75;;;18.90;90.70;;;;;;4953919;29;20340;-83
2021/06/30 07:27:18;;;;;;;44.33;34.78;;;18.90;90.80;;;;;;4954990;29;20636;-84
2021/06/30 07:29:44;;;;;;;45.03;35.30;;;19.00;90.00;;;;;;4953858;28;20201;-84
2021/06/30 07:32:10;;;;;;;45.67;35.30;;;19.20;90.50;;;;;;4954859;29;20203;-84
2021/06/30 07:34:35;;;;;;;41.00;32.72;;;19.10;89.50;;;;;;4953681;29;20183;-84
2021/06/30 07:37:01;;;;;;;43.50;31.92;;;19.20;90.00;;;;;;4953697;29;20194;-84
2021/06/30 07:39:26;;;;;;;38.42;31.58;;;19.40;89.70;;;;;;4953673;29;20225;-84
2021/06/30 07:41:53;;;;;;;38.30;32.45;;;19.50;89.10;;;;;;4954760;29;20685;-84
2021/06/30 07:44:19;;;;;;;41.88;33.17;;;19.70;89.80;;;;;;4955077;28;20561;-84
2021/06/30 07:46:45;;;;;;;40.17;31.92;;;19.80;88.70;;;;;;4953534;29;20171;-84
2021/06/30 07:49:11;;;;;;;35.78;29.83;;;19.70;88.40;;;;;;4953403;29;20257;-84
2021/06/30 07:51:36;;;;;;;38.70;32.15;;;19.70;87.90;;;;;;4953373;29;20195;-83
2021/06/30 07:54:03;;;;;;;37.88;29.25;;;19.80;88.40;;;;;;4954754;29;20250;-84
2021/06/30 07:56:36;;;;;;;34.72;28.67;;;19.90;88.20;;;;;;4953346;29;20175;-84
2021/06/30 07:59:05;;;;;;;35.05;28.38;;;19.80;86.90;;;;;;4953456;29;20199;-84
2021/06/30 08:01:31;;;;;;;34.22;29.60;;;19.80;87.60;;;;;;4953304;29;20553;-84
2021/06/30 08:03:58;;;;;;;39.22;29.95;;;19.70;87.40;;;;;;4954510;28;20254;-84
2021/06/30 08:06:23;;;;;;;36.03;29.00;;;19.70;87.40;;;;;;4954551;28;20180;-84
2021/06/30 08:08:49;;;;;;;36.75;28.67;;;19.70;87.50;;;;;;4954630;29;20736;-84
2021/06/30 08:11:17;;;;;;;41.60;29.63;;;19.60;87.70;;;;;;4954193;28;20178;-84
2021/06/30 08:13:43;;;;;;;29.95;24.02;;;19.70;88.00;;;;;;4953127;28;20175;-84
2021/06/30 08:16:08;;;;;;;27.27;22.65;;;19.70;87.70;;;;;;4953254;29;20176;-84
2021/06/30 08:18:34;;;;;;;27.95;21.73;;;19.60;87.50;;;;;;4954347;29;20254;-84
2021/06/30 08:21:00;;;;;;;25.88;21.25;;;19.70;87.30;;;;;;4954327;29;20179;-85
2021/06/30 08:23:25;;;;;;;31.77;21.48;;;19.70;87.10;;;;;;4953179;28;20246;-84
2021/06/30 08:25:51;;;;;;;25.55;20.73;;;19.70;86.80;;;;;;4954375;29;20175;-84
2021/06/30 08:28:18;;;;;;;27.70;20.92;;;19.70;86.60;;;;;;4952861;29;20281;-84
2021/06/30 08:30:44;;;;;;;30.88;21.60;;;19.50;87.20;;;;;;4952898;29;20597;-84
2021/06/30 08:33:10;;;;;;;27.13;21.45;;;19.40;87.10;;;;;;4953994;28;20187;-85
2021/06/30 08:35:36;;;;;;;30.25;22.45;;;19.40;87.30;;;;;;4954104;29;20180;-86
2021/06/30 08:38:01;;;;;;;32.30;21.73;;;19.50;87.30;;;;;;4952768;29;20187;-86
2021/06/30 08:40:27;;;;;;;28.35;21.48;;;19.60;87.50;;;;;;4953979;29;20296;-85
2021/06/30 08:42:53;;;;;;;28.00;21.70;;;19.60;87.50;;;;;;4954132;29;20207;-85
2021/06/30 08:45:19;;;;;;;42.00;23.90;;;19.50;87.20;;;;;;4953882;29;20180;-86
2021/06/30 08:47:47;;;;;;;27.70;22.50;;;19.70;87.00;;;;;;4952617;29;20230;-86
2021/06/30 08:50:13;;;;;;;25.67;20.67;;;19.90;87.20;;;;;;4953853;28;20207;-86
2021/06/30 08:52:40;;;;;;;29.30;21.13;;;20.00;86.50;;;;;;4952542;29;20569;-86
2021/06/30 08:55:07;;;;;;;25.85;21.10;;;20.00;85.60;;;;;;4953733;28;20175;-86
2021/06/30 08:57:35;;;;;;;26.67;20.02;;;19.80;86.40;;;;;;4952567;29;20206;-86
2021/06/30 09:00:02;;;;;;;28.08;20.95;;;20.00;86.70;;;;;;4953720;28;20183;-86
2021/06/30 09:02:28;;;;;;;23.10;19.25;;;20.20;86.40;;;;;;4952401;29;20214;-85
2021/06/30 09:05:12;;;;;;;23.73;19.92;;;20.20;85.20;;;;;;4953702;29;20553;-86
2021/06/30 09:07:39;;;;;;;26.88;19.33;;;20.20;85.70;;;;;;4953618;28;20737;-86
2021/06/30 09:10:05;;;;;;;23.88;19.05;;;20.20;85.30;;;;;;4952320;29;20184;-86
2021/06/30 09:12:41;;;;;;;27.85;18.50;;;20.20;84.90;;;;;;4952218;28;20605;-86
2021/06/30 09:15:17;;;;;;;20.30;16.20;;;20.20;85.00;;;;;;4953541;28;20257;-85
2021/06/30 09:17:44;;;;;;;21.02;16.33;;;20.10;84.60;;;;;;4952298;29;20210;-86
2021/06/30 09:20:10;;;;;;;25.63;15.57;;;20.20;84.90;;;;;;4952240;29;20647;-85
2021/06/30 09:22:48;;;;;;;23.65;15.25;;;20.20;85.80;;;;;;4952585;28;20214;-85
2021/06/30 09:25:36;;;;;;;23.92;16.10;;;20.20;85.00;;;;;;4952148;29;20225;-85
2021/06/30 09:28:13;;;;;;;26.08;15.43;;;20.10;85.60;;;;;;4953280;28;20566;-85
2021/06/30 09:31:01;;;;;;;25.35;15.05;;;20.20;85.00;;;;;;4952017;29;20179;-85
2021/06/30 09:33:47;;;;;;;26.45;16.92;;;20.20;85.00;;;;;;4953187;28;20272;-85
2021/06/30 09:36:13;;;;;;;28.05;15.82;;;20.50;85.30;;;;;;4951724;28;20233;-86
2021/06/30 09:38:40;;;;;;;21.85;15.70;;;20.50;83.90;;;;;;4953549;29;20176;-86
2021/06/30 09:41:07;;;;;;;23.08;14.13;;;20.20;83.80;;;;;;4953174;28;20171;-85
2021/06/30 09:43:33;;;;;;;22.52;15.32;;;20.10;84.60;;;;;;4951880;29;20272;-85
2021/06/30 09:46:16;;;;;;;22.95;14.13;;;20.20;84.80;;;;;;4952091;28;20607;-86
2021/06/30 09:48:42;;;;;;;19.65;14.50;;;20.20;83.50;;;;;;4952921;28;20191;-86
2021/06/30 09:51:20;;;;;;;20.00;14.25;;;20.30;84.40;;;;;;4951673;29;20198;-86
2021/06/30 09:53:46;;;;;;;22.80;14.18;;;20.30;83.70;;;;;;4952999;28;20171;-86
2021/06/30 09:56:36;;;;;;;21.77;13.23;;;20.30;83.40;;;;;;4951784;29;20207;-85
2021/06/30 09:59:14;;;;;;;18.20;12.57;;;20.30;83.80;;;;;;4951711;29;20191;-85
2021/06/30 10:01:41;;;;;;;19.67;12.70;;;20.30;84.10;;;;;;4951572;29;20203;-85
2021/06/30 10:04:09;;;;;;;17.08;11.25;;;20.70;82.70;;;;;;4951630;29;20183;-85
2021/06/30 10:06:36;;;;;;;14.88;10.82;;;20.80;83.20;;;;;;4951495;29;20217;-86
2021/06/30 10:09:06;;;;;;;15.60;11.82;;;21.20;81.00;;;;;;4952671;28;20290;-85
2021/06/30 10:11:34;;;;;;;18.50;11.82;;;20.80;81.90;;;;;;4951503;29;20203;-85
2021/06/30 10:14:02;;;;;;;20.90;11.98;;;20.80;82.10;;;;;;4951414;29;20205;-85
2021/06/30 10:16:29;;;;;;;14.05;11.73;;;20.80;82.00;;;;;;4951378;29;20270;-85
2021/06/30 10:18:57;;;;;;;13.32;10.98;;;21.20;82.30;;;;;;4951435;29;20179;-85
2021/06/30 10:21:26;;;;;;;17.45;11.73;;;21.20;81.50;;;;;;4951800;29;20678;-85
2021/06/30 10:23:52;;;;;;;12.77;11.10;;;21.20;81.10;;;;;;5034488;22;20318;-87
2021/06/30 10:26:19;;;;;;;12.40;10.50;;;21.20;80.30;;;;;;4952588;28;20609;-86
2021/06/30 10:29:00;;;;;;;17.50;11.13;;;21.70;81.60;;;;;;4952337;28;20203;-86
2021/06/30 10:31:31;;;;;;;16.33;11.52;;;21.70;79.70;;;;;;4952538;28;20186;-86
2021/06/30 10:33:59;;;;;;;12.82;11.07;;;21.30;79.70;;;;;;4952099;28;20191;-88
2021/06/30 10:36:45;;;;;;;16.42;11.18;;;21.20;81.10;;;;;;4950591;29;20640;-88
2021/06/30 10:39:12;;;;;;;13.27;11.63;;;21.20;80.70;;;;;;4951149;29;20194;-86
2021/06/30 10:41:42;;;;;;;16.10;11.48;;;21.20;79.70;;;;;;4953137;28;20187;-86
2021/06/30 10:44:15;;;;;;;15.02;10.75;;;21.30;81.10;;;;;;4952544;29;20223;-86
2021/06/30 10:46:43;;;;;;;14.57;11.20;;;21.50;79.70;;;;;;4952683;28;20168;-87
2021/06/30 10:49:16;;;;;;;13.60;10.95;;;21.50;79.80;;;;;;4953000;28;20298;-86
2021/06/30 10:51:46;;;;;;;18.77;11.35;;;21.70;79.60;;;;;;4952374;29;20271;-86
2021/06/30 10:54:41;;;;;;;17.25;12.07;;;21.20;80.20;;;;;;4952384;28;20198;-86
2021/06/30 10:57:31;;;;;;;19.50;12.57;;;21.20;80.50;;;;;;4950902;28;20172;-86
2021/06/30 11:00:05;;;;;;;18.27;12.27;;;21.50;80.20;;;;;;4951244;29;20160;-86
2021/06/30 11:02:34;;;;;;;15.73;12.82;;;21.70;79.30;;;;;;4950920;29;20159;-86
2021/06/30 11:05:14;;;;;;;18.15;12.93;;;21.20;79.10;;;;;;4950747;29;20258;-86
2021/06/30 11:07:45;;;;;;;17.27;13.10;;;21.60;80.70;;;;;;4950715;28;20210;-86
2021/06/30 11:10:16;;;;;;;18.67;12.32;;;21.80;80.20;;;;;;4950816;29;20183;-86
2021/06/30 11:12:59;;;;;;;21.15;13.80;;;21.90;78.90;;;;;;4952006;29;20326;-87
2021/06/30 11:15:44;;;;;;;17.50;12.18;;;21.80;78.90;;;;;;4950757;29;20186;-86
2021/06/30 11:18:12;;;;;;;18.40;12.00;;;21.90;78.50;;;;;;4952058;29;20152;-86
2021/06/30 11:20:48;;;;;;;20.35;12.30;;;21.90;78.00;;;;;;4951849;29;20184;-86
2021/06/30 11:23:24;;;;;;;28.88;13.32;;;21.90;78.10;;;;;;4951634;28;20196;-86
2021/06/30 11:25:54;;;;;;;18.15;13.00;;;21.70;77.30;;;;;;4950615;29;20175;-86
2021/06/30 11:28:36;;;;;;;17.98;13.93;;;21.60;78.10;;;;;;4951756;28;20720;-86
2021/06/30 11:31:27;;;;;;;21.17;14.82;;;21.20;79.40;;;;;;4950549;29;20190;-86
2021/06/30 11:34:21;;;;;;;22.88;15.25;;;21.50;79.20;;;;;;4951646;29;20257;-85
2021/06/30 11:36:47;;;;;;;19.85;15.05;;;21.50;79.60;;;;;;4950424;28;20570;-86
2021/06/30 11:39:16;;;;;;;18.40;13.95;;;22.10;77.60;;;;;;4951976;28;20180;-87
2021/06/30 11:41:46;;;;;;;23.10;14.38;;;21.80;77.70;;;;;;4950594;29;20180;-85
2021/06/30 11:44:13;;;;;;;20.08;15.20;;;21.50;78.70;;;;;;4966430;28;20246;-85
2021/06/30 11:46:41;;;;;;;19.00;14.38;;;21.60;79.10;;;;;;4953210;28;20205;-85
2021/06/30 11:49:09;;;;;;;17.55;13.10;;;22.10;79.30;;;;;;4954788;28;20207;-84
2021/06/30 11:51:35;;;;;;;15.80;10.75;;;21.90;77.20;;;;;;4954829;28;20194;-85
2021/06/30 11:54:01;;;;;;;17.35;9.57;;;22.50;76.70;;;;;;4953737;29;20631;-85
2021/06/30 11:56:32;;;;;;;21.60;11.50;;;22.40;73.70;;;;;;4954730;29;20203;-85
2021/06/30 11:58:58;;;;;;;20.23;11.88;;;21.90;76.00;;;;;;4953498;29;20215;-86
2021/06/30 12:01:30;;;;;;;14.18;11.38;;;22.40;77.70;;;;;;4954611;28;20171;-86
2021/06/30 12:04:08;;;;;;;19.83;11.35;;;22.50;77.10;;;;;;4953570;29;20596;-86
2021/06/30 12:06:34;;;;;;;15.45;10.75;;;22.50;76.20;;;;;;4953363;29;20211;-85
2021/06/30 12:09:15;;;;;;;13.57;10.20;;;22.10;76.70;;;;;;4953278;29;20227;-85
2021/06/30 12:11:43;;;;;;;18.27;11.52;;;21.80;76.10;;;;;;4953290;29;20174;-86
2021/06/30 12:14:17;;;;;;;17.08;11.60;;;22.00;77.20;;;;;;4954468;28;20196;-85
2021/06/30 12:17:00;;;;;;;20.00;12.10;;;21.80;77.10;;;;;;4953807;29;20168;-85
2021/06/30 12:19:42;;;;;;;15.40;11.55;;;21.80;76.80;;;;;;4953206;29;20174;-85
2021/06/30 12:22:18;;;;;;;19.00;12.18;;;21.70;76.20;;;;;;4953210;29;20168;-84
2021/06/30 12:24:44;;;;;;;22.10;13.60;;;21.70;76.60;;;;;;4954118;28;20284;-83
2021/06/30 12:27:11;;;;;;;22.38;13.00;;;22.20;76.00;;;;;;4953102;29;20237;-83
2021/06/30 12:29:38;;;;;;;26.23;14.88;;;22.40;76.60;;;;;;4954637;28;20194;-83